createdAt,value
2023-04-04T00:00:29.194Z,3.68
2023-04-04T00:02:00.672Z,3.23
2023-04-04T00:03:32.004Z,3.53
2023-04-04T00:05:03.472Z,3.47
2023-04-04T00:06:34.781Z,2.86
2023-04-04T00:08:06.134Z,3.12
2023-04-04T00:09:38.454Z,3.17
2023-04-04T00:11:09.778Z,3.29
2023-04-04T00:12:41.230Z,2.98
2023-04-04T00:14:12.408Z,3.01
2023-04-04T00:15:43.533Z,3.26
2023-04-04T00:17:14.811Z,3.27
2023-04-04T00:18:46.177Z,3.18
2023-04-04T00:20:17.841Z,3.24
2023-04-04T00:21:49.247Z,3.35
2023-04-04T00:23:20.727Z,3.45
2023-04-04T00:24:52.187Z,3.41
2023-04-04T00:26:23.746Z,3.24
2023-04-04T00:27:55.327Z,3.19
2023-04-04T00:29:26.538Z,3.37
2023-04-04T00:30:57.835Z,3.47
2023-04-04T00:32:30.387Z,3.26
2023-04-04T00:34:03.080Z,3.41
2023-04-04T00:35:34.431Z,3.19
2023-04-04T00:37:05.540Z,3.50
2023-04-04T00:38:36.758Z,3.21
2023-04-04T00:40:08.012Z,3.73
2023-04-04T00:41:39.240Z,3.65
2023-04-04T00:43:10.657Z,3.48
2023-04-04T00:44:42.062Z,3.65
2023-04-04T00:46:13.654Z,3.87
2023-04-04T00:47:44.981Z,3.67
2023-04-04T00:49:16.223Z,3.73
2023-04-04T00:50:47.416Z,3.92
2023-04-04T00:52:18.527Z,4.07
2023-04-04T00:53:49.907Z,3.77
2023-04-04T00:55:21.208Z,3.98
2023-04-04T00:56:52.521Z,3.91
2023-04-04T00:58:23.924Z,4.07
2023-04-04T00:59:55.296Z,4.00
2023-04-04T01:01:26.622Z,4.06
2023-04-04T01:02:58.056Z,4.60
2023-04-04T01:04:29.511Z,4.52
2023-04-04T01:06:01.207Z,4.25
2023-04-04T01:07:32.670Z,4.47
2023-04-04T01:09:04.311Z,4.34
2023-04-04T01:10:35.518Z,4.02
2023-04-04T01:12:06.687Z,4.01
2023-04-04T01:13:37.839Z,3.98
2023-04-04T01:15:08.978Z,3.94
2023-04-04T01:16:40.273Z,3.69
2023-04-04T01:18:11.564Z,4.06
2023-04-04T01:19:43.341Z,3.87
2023-04-04T01:21:15.329Z,3.70
2023-04-04T01:22:46.463Z,4.02
2023-04-04T01:24:17.797Z,3.73
2023-04-04T01:25:49.141Z,3.80
2023-04-04T01:27:20.541Z,3.73
2023-04-04T01:28:51.884Z,3.71
2023-04-04T01:30:23.100Z,3.69
2023-04-04T01:31:54.272Z,3.71
2023-04-04T01:33:30.586Z,3.72
2023-04-04T01:35:01.977Z,3.58
2023-04-04T01:36:33.184Z,3.47
2023-04-04T01:38:04.386Z,3.84
2023-04-04T01:39:35.881Z,3.88
2023-04-04T01:41:07.447Z,3.74
2023-04-04T01:42:38.865Z,4.51
2023-04-04T01:44:10.276Z,4.87
2023-04-04T01:45:41.593Z,4.73
2023-04-04T01:47:12.750Z,4.82
2023-04-04T01:48:44.060Z,5.41
2023-04-04T01:50:15.252Z,5.52
2023-04-04T01:51:46.673Z,5.76
2023-04-04T01:53:17.965Z,6.18
2023-04-04T01:54:49.293Z,6.51
2023-04-04T01:56:20.482Z,6.04
2023-04-04T01:57:52.255Z,5.41
2023-04-04T01:59:23.908Z,5.35
2023-04-04T02:00:55.173Z,4.60
2023-04-04T02:02:26.605Z,4.96
2023-04-04T02:03:57.909Z,4.85
2023-04-04T02:05:29.083Z,4.51
2023-04-04T02:07:00.560Z,4.55
2023-04-04T02:08:31.936Z,4.92
2023-04-04T02:10:03.041Z,5.99
2023-04-04T02:11:34.289Z,5.31
2023-04-04T02:13:05.648Z,5.24
2023-04-04T02:14:36.765Z,4.88
2023-04-04T02:16:08.109Z,5.42
2023-04-04T02:17:39.518Z,5.31
2023-04-04T02:19:10.733Z,5.05
2023-04-04T02:20:42.177Z,4.67
2023-04-04T02:22:13.398Z,4.83
2023-04-04T02:23:44.856Z,4.45
2023-04-04T02:25:16.130Z,4.88
2023-04-04T02:26:47.924Z,4.22
2023-04-04T02:28:19.120Z,4.32
2023-04-04T02:29:50.434Z,4.48
2023-04-04T02:31:21.791Z,4.45
2023-04-04T02:32:53.200Z,4.61
2023-04-04T02:34:24.840Z,4.26
2023-04-04T02:35:56.427Z,4.09
2023-04-04T02:37:27.797Z,4.29
2023-04-04T02:39:00.407Z,4.00
2023-04-04T02:40:31.945Z,4.27
2023-04-04T02:42:03.323Z,4.36
2023-04-04T02:43:34.447Z,4.35
2023-04-04T02:45:05.796Z,4.19
2023-04-04T02:46:37.181Z,4.14
2023-04-04T02:48:08.787Z,4.22
2023-04-04T02:49:40.217Z,4.06
2023-04-04T02:51:16.609Z,4.40
2023-04-04T02:52:47.926Z,4.06
2023-04-04T02:54:19.141Z,4.11
2023-04-04T02:55:50.394Z,4.05
2023-04-04T02:57:21.952Z,4.12
2023-04-04T02:58:53.285Z,4.14
2023-04-04T03:00:24.609Z,4.23
2023-04-04T03:01:55.868Z,4.45
2023-04-04T03:03:27.278Z,4.50
2023-04-04T03:04:59.025Z,4.39
2023-04-04T03:06:30.322Z,4.06
2023-04-04T03:08:01.783Z,4.20
2023-04-04T03:09:33.084Z,4.31
2023-04-04T03:11:04.553Z,4.49
2023-04-04T03:12:36.463Z,4.93
2023-04-04T03:14:08.056Z,4.80
2023-04-04T03:15:39.384Z,4.22
2023-04-04T03:17:10.925Z,4.33
2023-04-04T03:18:42.796Z,4.17
2023-04-04T03:20:14.663Z,4.02
2023-04-04T03:21:46.179Z,4.27
2023-04-04T03:23:17.566Z,4.30
2023-04-04T03:24:48.844Z,3.73
2023-04-04T03:26:20.160Z,3.97
2023-04-04T03:27:51.345Z,4.05
2023-04-04T03:29:22.771Z,4.32
2023-04-04T03:30:54.039Z,4.17
2023-04-04T03:32:25.333Z,4.36
2023-04-04T03:33:56.509Z,4.10
2023-04-04T03:35:28.050Z,4.21
2023-04-04T03:36:59.721Z,4.09
2023-04-04T03:38:32.321Z,4.02
2023-04-04T03:40:03.700Z,4.41
2023-04-04T03:41:34.889Z,4.42
2023-04-04T03:43:06.291Z,4.09
2023-04-04T03:44:37.724Z,4.62
2023-04-04T03:46:09.560Z,4.47
2023-04-04T03:47:40.939Z,4.60
2023-04-04T03:49:12.226Z,4.88
2023-04-04T03:50:43.699Z,4.73
2023-04-04T03:52:14.931Z,4.81
2023-04-04T03:53:46.286Z,4.34
2023-04-04T03:55:17.700Z,4.14
2023-04-04T03:56:49.000Z,4.29
2023-04-04T03:58:20.281Z,4.13
2023-04-04T03:59:51.462Z,4.30
2023-04-04T04:01:22.746Z,4.19
2023-04-04T04:02:54.338Z,4.22
2023-04-04T04:04:25.894Z,4.57
2023-04-04T04:05:57.286Z,4.39
2023-04-04T04:07:28.515Z,4.24
2023-04-04T04:08:59.820Z,4.29
2023-04-04T04:10:31.281Z,4.39
2023-04-04T04:12:02.725Z,4.74
2023-04-04T04:13:33.918Z,4.49
2023-04-04T04:15:05.206Z,4.51
2023-04-04T04:16:36.601Z,4.58
2023-04-04T04:18:07.812Z,4.38
2023-04-04T04:19:38.925Z,3.98
2023-04-04T04:21:10.224Z,4.54
2023-04-04T04:22:41.492Z,4.54
2023-04-04T04:24:13.348Z,4.16
2023-04-04T04:25:44.532Z,4.56
2023-04-04T04:27:15.822Z,4.40
2023-04-04T04:28:47.129Z,4.40
2023-04-04T04:30:18.393Z,4.46
2023-04-04T04:31:50.065Z,4.54
2023-04-04T04:33:21.459Z,4.61
2023-04-04T04:34:52.865Z,4.55
2023-04-04T04:36:24.431Z,4.28
2023-04-04T04:37:55.780Z,4.36
2023-04-04T04:39:27.038Z,4.58
2023-04-04T04:40:58.318Z,4.26
2023-04-04T04:42:29.694Z,4.27
2023-04-04T04:44:01.192Z,4.33
2023-04-04T04:45:33.029Z,4.38
2023-04-04T04:47:04.469Z,4.40
2023-04-04T04:48:35.735Z,4.55
2023-04-04T04:50:07.285Z,4.36
2023-04-04T04:51:39.035Z,4.45
2023-04-04T04:53:10.528Z,4.51
2023-04-04T04:54:42.032Z,4.48
2023-04-04T04:56:13.181Z,4.38
2023-04-04T04:57:44.386Z,4.22
2023-04-04T04:59:15.822Z,4.42
2023-04-04T05:00:47.203Z,4.61
2023-04-04T05:02:18.579Z,4.70
2023-04-04T05:03:52.102Z,4.30
2023-04-04T05:05:24.378Z,4.54
2023-04-04T05:06:55.759Z,4.49
2023-04-04T05:08:27.160Z,4.92
2023-04-04T05:09:58.725Z,4.57
2023-04-04T05:11:30.228Z,4.60
2023-04-04T05:13:01.707Z,4.25
2023-04-04T05:14:33.006Z,4.67
2023-04-04T05:16:04.513Z,4.34
2023-04-04T05:17:36.079Z,4.37
2023-04-04T05:19:07.551Z,4.45
2023-04-04T05:20:39.090Z,4.31
2023-04-04T05:22:10.892Z,4.80
2023-04-04T05:23:42.308Z,4.48
2023-04-04T05:25:13.729Z,4.54
2023-04-04T05:26:44.944Z,4.57
2023-04-04T05:28:16.280Z,4.27
2023-04-04T05:29:47.776Z,4.38
2023-04-04T05:31:19.223Z,4.02
2023-04-04T05:32:50.669Z,4.26
2023-04-04T05:34:21.921Z,4.40
2023-04-04T05:35:53.359Z,4.26
2023-04-04T05:37:24.960Z,4.30
2023-04-04T05:38:56.674Z,4.41
2023-04-04T05:40:27.920Z,4.19
2023-04-04T05:41:59.251Z,4.91
2023-04-04T05:43:30.481Z,4.42
2023-04-04T05:45:01.695Z,4.34
2023-04-04T05:46:33.115Z,4.49
2023-04-04T05:48:04.691Z,4.55
2023-04-04T05:49:36.064Z,4.68
2023-04-04T05:51:07.426Z,4.50
2023-04-04T05:52:38.628Z,4.67
2023-04-04T05:54:09.825Z,4.41
2023-04-04T05:55:41.200Z,4.38
2023-04-04T05:57:12.692Z,4.53
2023-04-04T05:58:44.242Z,4.10
2023-04-04T06:00:15.486Z,4.39
2023-04-04T06:01:46.767Z,4.68
2023-04-04T06:03:21.201Z,4.48
2023-04-04T06:04:53.158Z,4.43
2023-04-04T06:06:24.417Z,4.52
2023-04-04T06:07:55.580Z,4.66
2023-04-04T06:09:26.972Z,4.42
2023-04-04T06:10:58.366Z,4.63
2023-04-04T06:12:29.930Z,4.69
2023-04-04T06:14:01.724Z,4.51
2023-04-04T06:15:33.153Z,4.61
2023-04-04T06:17:04.441Z,4.69
2023-04-04T06:18:55.612Z,5.15
2023-04-04T06:20:26.989Z,4.52
2023-04-04T06:21:58.396Z,4.59
2023-04-04T06:23:39.550Z,4.51
2023-04-04T06:25:10.829Z,4.18
2023-04-04T06:26:42.036Z,4.46
2023-04-04T06:28:13.374Z,4.54
2023-04-04T06:29:44.510Z,4.42
2023-04-04T06:31:15.947Z,4.90
2023-04-04T06:32:47.509Z,4.72
2023-04-04T06:34:18.897Z,4.63
2023-04-04T06:35:50.201Z,4.42
2023-04-04T06:37:21.673Z,4.43
2023-04-04T06:38:53.254Z,4.56
2023-04-04T06:40:24.473Z,5.01
2023-04-04T06:41:56.730Z,4.76
2023-04-04T06:43:30.564Z,4.94
2023-04-04T06:45:02.296Z,4.87
2023-04-04T06:46:33.662Z,4.89
2023-04-04T06:48:04.916Z,5.04
2023-04-04T06:49:36.116Z,4.94
2023-04-04T06:51:07.471Z,4.79
2023-04-04T06:52:39.675Z,4.88
2023-04-04T06:54:11.173Z,4.96
2023-04-04T06:55:47.604Z,5.15
2023-04-04T06:57:18.789Z,5.40
2023-04-04T06:58:50.589Z,5.15
2023-04-04T07:00:22.028Z,5.07
2023-04-04T07:01:53.414Z,5.13
2023-04-04T07:03:24.622Z,5.28
2023-04-04T07:04:56.024Z,5.20
2023-04-04T07:06:27.391Z,5.23
2023-04-04T07:07:58.820Z,5.46
2023-04-04T07:09:30.182Z,5.77
2023-04-04T07:11:01.365Z,5.78
2023-04-04T07:12:32.646Z,6.03
2023-04-04T07:14:03.924Z,5.95
2023-04-04T07:15:35.337Z,6.25
2023-04-04T07:17:17.023Z,6.04
2023-04-04T07:18:55.306Z,5.99
2023-04-04T07:20:27.099Z,6.09
2023-04-04T07:22:03.642Z,6.10
2023-04-04T07:23:35.117Z,6.25
2023-04-04T07:25:06.610Z,6.11
2023-04-04T07:26:37.989Z,6.03
2023-04-04T07:28:12.902Z,6.10
2023-04-04T07:29:45.140Z,6.07
2023-04-04T07:31:16.551Z,6.21
2023-04-04T07:32:47.990Z,5.95
2023-04-04T07:34:19.269Z,5.97
2023-04-04T07:35:50.820Z,5.72
2023-04-04T07:37:22.409Z,5.16
2023-04-04T07:38:53.582Z,5.16
2023-04-04T07:40:25.006Z,4.97
2023-04-04T07:41:56.229Z,4.96
2023-04-04T07:43:27.491Z,5.10
2023-04-04T07:44:58.880Z,5.17
2023-04-04T07:46:35.084Z,5.32
2023-04-04T07:48:06.305Z,5.04
2023-04-04T07:49:37.752Z,4.39
2023-04-04T07:51:09.116Z,4.32
2023-04-04T07:52:40.574Z,4.31
2023-04-04T07:54:11.981Z,3.78
2023-04-04T07:55:43.587Z,3.92
2023-04-04T07:57:14.889Z,4.24
2023-04-04T07:58:46.616Z,4.34
2023-04-04T08:00:18.090Z,4.54
2023-04-04T08:01:49.621Z,4.75
2023-04-04T08:03:21.129Z,4.59
2023-04-04T08:04:52.618Z,4.12
2023-04-04T08:06:29.243Z,4.26
2023-04-04T08:08:00.524Z,4.03
2023-04-04T08:09:31.921Z,4.00
2023-04-04T08:11:03.214Z,3.61
2023-04-04T08:12:34.758Z,3.33
2023-04-04T08:14:05.988Z,3.62
2023-04-04T08:15:37.320Z,3.86
2023-04-04T08:17:09.478Z,3.96
2023-04-04T08:18:40.826Z,3.98
2023-04-04T08:20:12.019Z,3.76
2023-04-04T08:21:43.180Z,3.69
2023-04-04T08:23:14.426Z,3.52
2023-04-04T08:24:46.129Z,3.53
2023-04-04T08:26:17.606Z,2.93
2023-04-04T08:27:49.417Z,2.43
2023-04-04T08:29:20.966Z,2.34
2023-04-04T08:30:52.506Z,2.40
2023-04-04T08:32:24.205Z,2.34
2023-04-04T08:33:55.405Z,2.84
2023-04-04T08:35:28.340Z,2.77
2023-04-04T08:36:59.534Z,2.41
2023-04-04T08:38:30.666Z,2.43
2023-04-04T08:40:02.079Z,2.20
2023-04-04T08:41:33.395Z,2.17
2023-04-04T08:43:04.591Z,2.18
2023-04-04T08:44:35.965Z,2.13
2023-04-04T08:46:12.427Z,2.37
2023-04-04T08:47:43.928Z,2.51
2023-04-04T08:49:15.145Z,2.59
2023-04-04T08:50:46.386Z,2.30
2023-04-04T08:52:18.203Z,2.67
2023-04-04T08:53:49.460Z,2.26
2023-04-04T08:55:21.168Z,2.04
2023-04-04T08:56:53.128Z,2.05
2023-04-04T08:58:24.513Z,2.15
2023-04-04T08:59:55.972Z,2.23
2023-04-04T09:01:27.345Z,2.24
2023-04-04T09:02:58.964Z,2.20
2023-04-04T09:04:30.303Z,2.10
2023-04-04T09:06:01.720Z,2.22
2023-04-04T09:07:33.073Z,2.15
2023-04-04T09:09:04.747Z,1.70
2023-04-04T09:10:36.183Z,2.21
2023-04-04T09:12:07.416Z,2.20
2023-04-04T09:13:40.894Z,2.06
2023-04-04T09:15:12.655Z,1.73
2023-04-04T09:16:44.006Z,1.74
2023-04-04T09:18:15.261Z,1.78
2023-04-04T09:19:46.600Z,2.32
2023-04-04T09:21:18.150Z,2.57
2023-04-04T09:22:49.550Z,2.38
2023-04-04T09:24:20.778Z,2.53
2023-04-04T09:26:03.307Z,2.57
2023-04-04T09:27:35.797Z,1.84
2023-04-04T09:29:06.982Z,2.22
2023-04-04T09:30:38.713Z,2.42
2023-04-04T09:32:10.192Z,2.28
2023-04-04T09:33:41.771Z,2.37
2023-04-04T09:35:13.071Z,2.36
2023-04-04T09:36:44.430Z,2.41
2023-04-04T09:38:15.748Z,2.35
2023-04-04T09:39:48.098Z,2.01
2023-04-04T09:41:19.419Z,2.32
2023-04-04T09:42:50.712Z,2.22
2023-04-04T09:44:21.996Z,2.07
2023-04-04T09:45:53.282Z,2.22
2023-04-04T09:47:30.352Z,2.02
2023-04-04T09:49:02.709Z,1.70
2023-04-04T09:50:34.054Z,1.86
2023-04-04T09:52:05.383Z,1.71
2023-04-04T09:53:36.651Z,2.08
2023-04-04T09:55:08.082Z,2.25
2023-04-04T09:56:39.325Z,1.99
2023-04-04T09:58:10.531Z,2.04
2023-04-04T09:59:41.745Z,2.25
2023-04-04T10:01:12.945Z,2.07
2023-04-04T10:02:44.340Z,2.22
2023-04-04T10:04:15.822Z,2.40
2023-04-04T10:05:47.170Z,2.50
2023-04-04T10:07:18.401Z,2.40
2023-04-04T10:08:50.068Z,2.83
2023-04-04T10:10:21.591Z,2.43
2023-04-04T10:11:53.017Z,2.20
2023-04-04T10:13:24.257Z,2.22
2023-04-04T10:14:55.505Z,2.17
2023-04-04T10:16:26.848Z,2.33
2023-04-04T10:17:58.454Z,2.27
2023-04-04T10:19:29.772Z,1.83
2023-04-04T10:21:08.185Z,2.31
2023-04-04T10:22:46.433Z,2.39
2023-04-04T10:24:17.968Z,2.44
2023-04-04T10:25:49.453Z,2.31
2023-04-04T10:27:20.644Z,2.21
2023-04-04T10:28:52.345Z,2.40
2023-04-04T10:30:23.649Z,2.35
2023-04-04T10:31:54.925Z,2.29
2023-04-04T10:33:26.430Z,1.55
2023-04-04T10:34:57.743Z,2.02
2023-04-04T10:36:29.221Z,2.12
2023-04-04T10:38:00.455Z,2.16
2023-04-04T10:39:31.749Z,2.10
2023-04-04T10:41:03.128Z,2.09
2023-04-04T10:42:34.311Z,2.15
2023-04-04T10:44:05.842Z,2.24
2023-04-04T10:45:37.235Z,2.30
2023-04-04T10:47:08.553Z,2.15
2023-04-04T10:48:39.759Z,2.23
2023-04-04T10:50:11.080Z,2.23
2023-04-04T10:51:54.928Z,2.19
2023-04-04T10:53:27.341Z,1.84
2023-04-04T10:54:58.749Z,1.77
2023-04-04T10:56:30.157Z,2.18
2023-04-04T10:58:01.494Z,2.09
2023-04-04T10:59:38.050Z,2.06
2023-04-04T11:01:09.558Z,2.31
2023-04-04T11:02:40.996Z,2.09
2023-04-04T11:04:12.805Z,2.25
2023-04-04T11:05:44.189Z,2.06
2023-04-04T11:07:15.469Z,1.90
2023-04-04T11:08:47.104Z,2.21
2023-04-04T11:10:18.597Z,2.12
2023-04-04T11:11:50.055Z,2.13
2023-04-04T11:13:21.333Z,2.06
2023-04-04T11:14:52.734Z,1.90
2023-04-04T11:16:23.975Z,1.88
2023-04-04T11:17:55.411Z,2.16
2023-04-04T11:19:26.988Z,2.04
2023-04-04T11:20:58.263Z,2.27
2023-04-04T11:22:29.579Z,2.22
2023-04-04T11:24:01.008Z,2.26
2023-04-04T11:25:32.549Z,3.02
2023-04-04T11:27:03.845Z,2.79
2023-04-04T11:28:35.115Z,2.85
2023-04-04T11:30:07.453Z,2.20
2023-04-04T11:31:39.012Z,2.06
2023-04-04T11:33:10.729Z,2.31
2023-04-04T11:34:42.109Z,2.03
2023-04-04T11:36:13.408Z,1.83
2023-04-04T11:37:44.774Z,1.82
2023-04-04T11:39:16.079Z,1.54
2023-04-04T11:40:47.599Z,2.03
2023-04-04T11:42:18.833Z,2.61
2023-04-04T11:43:50.096Z,2.50
2023-04-04T11:45:21.438Z,2.12
2023-04-04T11:46:52.752Z,2.12
2023-04-04T11:48:24.009Z,2.43
2023-04-04T11:49:55.611Z,2.01
2023-04-04T11:51:26.871Z,2.07
2023-04-04T11:52:58.209Z,2.35
2023-04-04T11:54:29.974Z,2.28
2023-04-04T11:56:01.498Z,2.29
2023-04-04T11:57:32.881Z,2.43
2023-04-04T11:59:10.980Z,2.35
2023-04-04T12:00:42.984Z,2.27
2023-04-04T12:02:14.400Z,2.13
2023-04-04T12:03:45.753Z,2.35
2023-04-04T12:05:17.339Z,2.10
2023-04-04T12:06:48.715Z,1.87
2023-04-04T12:08:20.081Z,2.11
2023-04-04T12:09:51.432Z,1.95
2023-04-04T12:11:22.905Z,1.95
2023-04-04T12:12:54.180Z,1.93
2023-04-04T12:14:25.600Z,1.90
2023-04-04T12:15:57.378Z,1.93
2023-04-04T12:17:29.131Z,1.98
2023-04-04T12:19:00.499Z,1.88
2023-04-04T12:20:32.058Z,1.91
2023-04-04T12:22:05.205Z,2.16
2023-04-04T12:23:36.715Z,2.06
2023-04-04T12:25:08.067Z,2.26
2023-04-04T12:26:39.418Z,2.15
2023-04-04T12:28:10.864Z,2.13
2023-04-04T12:29:42.196Z,2.27
2023-04-04T12:31:39.802Z,2.16
2023-04-04T12:33:12.402Z,2.07
2023-04-04T12:34:46.985Z,2.30
2023-04-04T12:36:21.299Z,3.13
2023-04-04T12:37:52.744Z,2.08
2023-04-04T12:39:24.054Z,2.01
2023-04-04T12:40:55.377Z,1.90
2023-04-04T12:42:26.680Z,2.15
2023-04-04T12:43:58.234Z,2.04
2023-04-04T12:45:29.554Z,2.09
2023-04-04T12:47:08.808Z,1.97
2023-04-04T12:48:40.207Z,2.26
2023-04-04T12:50:11.524Z,2.18
2023-04-04T12:51:42.905Z,2.00
2023-04-04T12:53:27.876Z,2.15
2023-04-04T12:55:08.146Z,2.14
2023-04-04T12:56:40.219Z,1.76
2023-04-04T12:58:11.592Z,2.08
2023-04-04T12:59:42.982Z,2.07
2023-04-04T13:01:14.351Z,2.24
2023-04-04T13:02:46.420Z,2.03
2023-04-04T13:04:17.891Z,2.14
2023-04-04T13:05:49.518Z,2.20
2023-04-04T13:07:20.979Z,2.25
2023-04-04T13:08:52.661Z,1.97
2023-04-04T13:10:24.014Z,1.97
2023-04-04T13:11:55.463Z,2.05
2023-04-04T13:13:27.079Z,2.34
2023-04-04T13:14:58.996Z,2.12
2023-04-04T13:16:30.620Z,2.12
2023-04-04T13:18:02.046Z,2.36
2023-04-04T13:19:33.480Z,2.29
2023-04-04T13:21:04.839Z,2.10
2023-04-04T13:22:36.427Z,1.87
2023-04-04T13:24:08.037Z,1.96
2023-04-04T13:25:39.590Z,1.85
2023-04-04T13:27:11.327Z,2.10
2023-04-04T13:28:43.071Z,2.15
2023-04-04T13:30:14.617Z,2.03
2023-04-04T13:31:46.219Z,2.12
2023-04-04T13:33:17.860Z,2.15
2023-04-04T13:34:49.297Z,2.09
2023-04-04T13:36:20.852Z,2.34
2023-04-04T13:37:52.410Z,2.91
2023-04-04T13:39:23.792Z,2.39
2023-04-04T13:40:55.115Z,2.71
2023-04-04T13:42:26.548Z,2.13
2023-04-04T13:43:59.786Z,2.15
2023-04-04T13:45:31.332Z,2.27
2023-04-04T13:47:02.903Z,2.76
2023-04-04T13:48:34.258Z,2.55
2023-04-04T13:50:05.555Z,2.28
2023-04-04T13:51:37.012Z,2.24
2023-04-04T13:53:08.315Z,2.19
2023-04-04T13:54:39.776Z,2.44
2023-04-04T13:57:45.687Z,2.91
2023-04-04T13:59:17.123Z,5.08
2023-04-04T14:00:48.548Z,3.64
2023-04-04T14:02:19.952Z,2.89
2023-04-04T14:03:51.291Z,2.34
2023-04-04T14:05:22.741Z,1.98
2023-04-04T14:06:55.219Z,2.30
2023-04-04T14:08:26.722Z,2.17
2023-04-04T14:09:58.167Z,2.18
2023-04-04T14:11:29.519Z,2.25
2023-04-04T14:13:00.832Z,2.41
2023-04-04T14:14:34.501Z,2.61
2023-04-04T14:16:07.120Z,2.33
2023-04-04T14:17:38.555Z,2.33
2023-04-04T14:19:09.998Z,2.36
2023-04-04T14:20:41.493Z,2.23
2023-04-04T14:22:12.796Z,2.26
2023-04-04T14:23:44.094Z,2.36
2023-04-04T14:25:15.434Z,2.21
2023-04-04T14:26:46.792Z,2.36
2023-04-04T14:28:18.197Z,2.38
2023-04-04T14:29:49.677Z,2.19
2023-04-04T14:31:21.031Z,2.26
2023-04-04T14:32:52.703Z,2.04
2023-04-04T14:34:24.080Z,2.21
2023-04-04T14:35:55.483Z,2.22
2023-04-04T14:37:27.037Z,2.30
2023-04-04T14:38:58.501Z,2.26
2023-04-04T14:40:29.891Z,2.38
2023-04-04T14:42:01.227Z,2.33
2023-04-04T14:43:32.588Z,2.16
2023-04-04T14:45:08.992Z,2.37
2023-04-04T14:46:40.722Z,2.31
2023-04-04T14:48:13.160Z,2.43
2023-04-04T14:49:44.462Z,2.42
2023-04-04T14:51:15.994Z,2.38
2023-04-04T14:52:47.489Z,2.33
2023-04-04T14:54:18.886Z,2.44
2023-04-04T14:55:50.217Z,2.47
2023-04-04T14:57:21.619Z,2.52
2023-04-04T14:58:53.092Z,2.66
2023-04-04T15:00:24.548Z,2.58
2023-04-04T15:01:56.008Z,2.24
2023-04-04T15:03:27.524Z,2.42
2023-04-04T15:04:58.969Z,2.49
2023-04-04T15:06:30.393Z,2.75
2023-04-04T15:08:01.755Z,2.54
2023-04-04T15:09:33.315Z,2.52
2023-04-04T15:11:05.891Z,2.72
2023-04-04T15:12:37.390Z,2.85
2023-04-04T15:14:08.698Z,2.64
2023-04-04T15:15:40.203Z,2.56
2023-04-04T15:17:11.715Z,2.88
2023-04-04T15:18:43.166Z,2.72
2023-04-04T15:20:14.729Z,2.94
2023-04-04T15:21:46.294Z,2.96
2023-04-04T15:23:17.680Z,2.85
2023-04-04T15:24:49.112Z,3.09
2023-04-04T15:26:20.556Z,2.68
2023-04-04T15:27:52.256Z,2.84
2023-04-04T15:29:23.597Z,2.82
2023-04-04T15:30:54.987Z,2.84
2023-04-04T15:32:26.374Z,2.71
2023-04-04T15:33:57.730Z,2.78
2023-04-04T15:35:29.213Z,2.89
2023-04-04T15:37:00.814Z,2.79
2023-04-04T15:38:32.552Z,2.72
2023-04-04T15:40:08.910Z,2.68
2023-04-04T15:41:40.481Z,2.82
2023-04-04T15:43:11.859Z,2.89
2023-04-04T15:44:43.652Z,2.96
2023-04-04T15:46:15.108Z,2.96
2023-04-04T15:47:48.045Z,2.83
2023-04-04T15:49:19.796Z,2.85
2023-04-04T15:50:51.225Z,2.96
2023-04-04T15:52:22.565Z,3.25
2023-04-04T15:53:53.937Z,3.29
2023-04-04T15:55:25.313Z,3.06
2023-04-04T15:56:56.771Z,2.89
2023-04-04T15:58:28.297Z,3.15
2023-04-04T15:59:59.727Z,3.19
2023-04-04T16:01:31.903Z,3.18
2023-04-04T16:03:03.450Z,3.15
2023-04-04T16:04:34.832Z,2.98
2023-04-04T16:06:06.190Z,2.99
2023-04-04T16:07:37.817Z,3.28
2023-04-04T16:09:09.363Z,3.08
2023-04-04T16:10:40.923Z,2.96
2023-04-04T16:12:12.521Z,2.91
2023-04-04T16:13:43.833Z,3.29
2023-04-04T16:15:15.193Z,3.09
2023-04-04T16:16:46.961Z,2.99
2023-04-04T16:18:18.389Z,3.00
2023-04-04T16:19:49.885Z,3.09
2023-04-04T16:21:21.459Z,2.59
2023-04-04T16:24:24.377Z,3.06
2023-04-04T16:25:55.695Z,3.02
2023-04-04T16:27:26.983Z,2.94
2023-04-04T16:28:58.452Z,2.76
2023-04-04T16:30:29.884Z,2.99
2023-04-04T16:32:01.225Z,3.24
2023-04-04T16:33:32.720Z,3.24
2023-04-04T16:35:04.116Z,3.53
2023-04-04T16:36:35.598Z,3.05
2023-04-04T16:38:07.307Z,3.31
2023-04-04T16:39:38.708Z,3.02
2023-04-04T16:41:10.216Z,3.39
2023-04-04T16:42:41.526Z,3.53
2023-04-04T16:44:13.091Z,3.27
2023-04-04T16:45:44.500Z,3.02
2023-04-04T16:47:16.028Z,3.04
2023-04-04T16:48:47.568Z,2.99
2023-04-04T16:50:18.835Z,2.82
2023-04-04T16:51:50.494Z,2.65
2023-04-04T16:53:21.848Z,2.50
2023-04-04T16:54:53.282Z,3.07
2023-04-04T16:56:24.530Z,2.94
2023-04-04T16:57:55.969Z,3.06
2023-04-04T16:59:27.405Z,3.11
2023-04-04T17:00:58.751Z,3.24
2023-04-04T17:02:30.284Z,3.36
2023-04-04T17:04:01.708Z,3.42
2023-04-04T17:05:33.021Z,3.11
2023-04-04T17:07:04.320Z,3.29
2023-04-04T17:08:35.598Z,3.19
2023-04-04T17:10:06.839Z,3.33
2023-04-04T17:11:38.161Z,3.20
2023-04-04T17:13:09.469Z,3.29
2023-04-04T17:14:40.722Z,3.16
2023-04-04T17:16:11.955Z,3.51
2023-04-04T17:17:43.440Z,3.22
2023-04-04T17:19:25.913Z,3.26
2023-04-04T17:20:57.236Z,2.87
2023-04-04T17:22:28.474Z,2.90
2023-04-04T17:23:59.942Z,3.38
2023-04-04T17:25:31.238Z,3.20
2023-04-04T17:27:13.719Z,3.24
2023-04-04T17:28:45.088Z,3.44
2023-04-04T17:30:16.349Z,3.33
2023-04-04T17:31:52.689Z,3.28
2023-04-04T17:33:24.034Z,3.36
2023-04-04T17:34:55.376Z,3.64
2023-04-04T17:36:26.809Z,3.58
2023-04-04T17:37:58.131Z,3.98
2023-04-04T17:39:29.479Z,3.73
2023-04-04T17:41:00.898Z,3.36
2023-04-04T17:42:32.116Z,3.31
2023-04-04T17:44:03.469Z,3.21
2023-04-04T17:45:34.724Z,3.28
2023-04-04T17:47:05.994Z,3.19
2023-04-04T17:48:37.212Z,2.98
2023-04-04T17:50:08.512Z,3.12
2023-04-04T17:51:39.743Z,3.17
2023-04-04T17:53:11.091Z,2.99
2023-04-04T17:54:42.279Z,3.10
2023-04-04T17:56:14.804Z,3.24
2023-04-04T17:57:46.083Z,3.15
2023-04-04T17:59:17.358Z,3.26
2023-04-04T18:00:48.833Z,3.60
2023-04-04T18:02:20.311Z,3.14
2023-04-04T18:03:51.726Z,3.49
2023-04-04T18:05:23.184Z,3.43
2023-04-04T18:06:54.745Z,3.34
2023-04-04T18:08:26.140Z,3.28
2023-04-04T18:09:57.452Z,3.18
2023-04-04T18:11:28.746Z,3.43
2023-04-04T18:13:00.041Z,3.36
2023-04-04T18:14:31.620Z,3.16
2023-04-04T18:16:03.157Z,3.23
2023-04-04T18:17:34.856Z,3.23
2023-04-04T18:19:06.158Z,3.31
2023-04-04T18:20:37.526Z,3.45
2023-04-04T18:22:09.489Z,3.49
2023-04-04T18:23:40.879Z,3.50
2023-04-04T18:25:12.236Z,3.62
2023-04-04T18:26:43.652Z,3.68
2023-04-04T18:28:14.981Z,3.70
2023-04-04T18:29:46.493Z,3.87
2023-04-04T18:31:17.773Z,4.19
2023-04-04T18:32:49.208Z,4.18
2023-04-04T18:34:22.741Z,3.67
2023-04-04T18:35:54.055Z,3.68
2023-04-04T18:37:57.960Z,3.78
2023-04-04T18:39:29.485Z,3.56
2023-04-04T18:41:00.682Z,3.26
2023-04-04T18:42:31.866Z,3.40
2023-04-04T18:44:08.051Z,3.66
2023-04-04T18:45:40.773Z,3.49
2023-04-04T18:47:12.197Z,3.43
2023-04-04T18:48:43.543Z,3.43
2023-04-04T18:50:14.834Z,3.69
2023-04-04T18:51:46.097Z,3.81
2023-04-04T18:53:17.843Z,4.07
2023-04-04T18:54:50.500Z,3.92
2023-04-04T18:56:21.851Z,3.82
2023-04-04T18:57:53.413Z,3.80
2023-04-04T18:59:24.965Z,4.02
2023-04-04T19:00:56.337Z,3.69
2023-04-04T19:02:27.849Z,4.55
2023-04-04T19:03:59.738Z,3.93
2023-04-04T19:05:31.138Z,3.76
2023-04-04T19:07:02.532Z,3.83
2023-04-04T19:08:33.919Z,4.00
2023-04-04T19:10:05.160Z,3.99
2023-04-04T19:11:36.650Z,4.05
2023-04-04T19:13:07.985Z,4.08
2023-04-04T19:14:39.451Z,4.10
2023-04-04T19:16:11.661Z,3.94
2023-04-04T19:17:48.575Z,3.85
2023-04-04T19:19:19.783Z,4.13
2023-04-04T19:20:51.113Z,4.03
2023-04-04T19:22:22.454Z,4.17
2023-04-04T19:23:53.867Z,4.27
2023-04-04T19:25:25.295Z,3.82
2023-04-04T19:26:56.712Z,4.16
2023-04-04T19:28:28.136Z,4.16
2023-04-04T19:29:59.565Z,4.30
2023-04-04T19:31:31.099Z,4.63
2023-04-04T19:33:02.781Z,4.60
2023-04-04T19:34:34.092Z,5.19
2023-04-04T19:36:05.377Z,4.82
2023-04-04T19:37:36.950Z,5.02
2023-04-04T19:39:08.489Z,4.65
2023-04-04T19:40:39.838Z,4.35
2023-04-04T19:42:11.335Z,4.03
2023-04-04T19:43:43.018Z,4.50
2023-04-04T19:45:14.324Z,4.20
2023-04-04T19:46:50.756Z,4.04
2023-04-04T19:48:27.034Z,4.03
2023-04-04T19:50:03.307Z,4.10
2023-04-04T19:51:34.484Z,4.44
2023-04-04T19:53:10.755Z,4.29
2023-04-04T19:54:42.158Z,4.30
2023-04-04T19:56:35.808Z,4.58
2023-04-04T19:58:07.153Z,4.41
2023-04-04T19:59:38.542Z,4.42
2023-04-04T20:01:09.784Z,4.57
2023-04-04T20:02:41.189Z,4.49
2023-04-04T20:04:12.877Z,4.51
2023-04-04T20:05:54.102Z,4.28
2023-04-04T20:07:25.375Z,4.47
2023-04-04T20:08:56.584Z,4.65
2023-04-04T20:10:27.877Z,4.32
2023-04-04T20:11:59.104Z,4.60
2023-04-04T20:13:30.675Z,4.74
2023-04-04T20:15:02.206Z,4.53
2023-04-04T20:16:33.472Z,4.57
2023-04-04T20:18:10.060Z,4.71
2023-04-04T20:19:41.692Z,4.51
2023-04-04T20:21:13.194Z,4.61
2023-04-04T20:22:44.699Z,4.61
2023-04-04T20:24:16.171Z,4.33
2023-04-04T20:25:47.747Z,4.52